Time;durP1;ratioP1;P1;durP2;ratioP2;P2;SDS_P1;SDS_P2;PMS_P1;PMS_P2;Temp;Humidity;BMP_temperature;BMP_pressure;BME280_temperature;BME280_humidity;BME280_pressure;Samples;Min_cycle;Max_cycle;Signal;HPM_P1;HPM_P2
2022/10/06 00:00:48;;;;;;;3.23;1.87;;;;;;;;;;5053917;28;20411;-45
2022/10/06 00:03:14;;;;;;;1.30;1.20;;;;;;;;;;5054035;28;20430;-46
2022/10/06 00:05:40;;;;;;;1.93;1.50;;;;;;;;;;5054117;28;20418;-47
2022/10/06 00:08:06;;;;;;;2.90;1.30;;;;;;;;;;5053418;28;20787;-47
2022/10/06 00:10:32;;;;;;;3.83;1.30;;;;;;;;;;5053867;28;20426;-47
2022/10/06 00:12:58;;;;;;;1.40;1.30;;;;;;;;;;5053976;28;20927;-47
2022/10/06 00:15:26;;;;;;;1.40;1.20;;;;;;;;;;5053713;28;20873;-47
2022/10/06 00:17:52;;;;;;;2.80;1.30;;;;;;;;;;5053144;28;20922;-47
2022/10/06 00:20:18;;;;;;;2.00;1.10;;;;;;;;;;5053760;28;20421;-47
2022/10/06 00:22:46;;;;;;;4.00;1.23;;;;;;;;;;5053722;28;20452;-46
2022/10/06 00:25:13;;;;;;;2.70;1.50;;;;;;;;;;5053848;28;20480;-47
2022/10/06 00:27:40;;;;;;;2.57;1.50;;;;;;;;;;5053473;28;20920;-46
2022/10/06 00:30:08;;;;;;;4.90;1.40;;;;;;;;;;5052832;28;20465;-44
2022/10/06 00:32:34;;;;;;;10.30;1.73;;;;;;;;;;5053799;28;20405;-48
2022/10/06 00:35:00;;;;;;;1.80;1.20;;;;;;;;;;5053484;28;20784;-47
2022/10/06 00:37:27;;;;;;;3.73;1.90;;;;;;;;;;5052789;28;20503;-47
2022/10/06 00:39:53;;;;;;;4.23;1.30;;;;;;;;;;5053053;28;20993;-44
2022/10/06 00:42:23;;;;;;;3.97;1.60;;;;;;;;;;5053242;28;20883;-44
2022/10/06 00:44:50;;;;;;;2.80;1.50;;;;;;;;;;5053176;28;20415;-46
2022/10/06 00:47:17;;;;;;;2.80;1.53;;;;;;;;;;5053137;28;20409;-47
2022/10/06 00:49:45;;;;;;;3.20;1.47;;;;;;;;;;5052802;28;20931;-47
2022/10/06 00:52:13;;;;;;;1.83;1.30;;;;;;;;;;5053034;28;20396;-45
2022/10/06 00:54:39;;;;;;;4.13;1.40;;;;;;;;;;5053099;28;20412;-48
2022/10/06 00:57:06;;;;;;;3.00;1.60;;;;;;;;;;5052737;28;20450;-46
2022/10/06 00:59:32;;;;;;;1.70;1.40;;;;;;;;;;5052569;28;20438;-45
2022/10/06 01:02:03;;;;;;;5.63;1.17;;;;;;;;;;5052068;28;20395;-45
2022/10/06 01:04:33;;;;;;;2.07;1.40;;;;;;;;;;5052370;28;20513;-41
2022/10/06 01:06:59;;;;;;;4.30;1.23;;;;;;;;;;5052401;28;20493;-45
2022/10/06 01:09:26;;;;;;;2.47;1.20;;;;;;;;;;5052136;28;20509;-44
2022/10/06 01:11:53;;;;;;;3.73;1.60;;;;;;;;;;5052521;28;20382;-46
2022/10/06 01:14:20;;;;;;;5.63;1.60;;;;;;;;;;5052693;28;20402;-47
2022/10/06 01:16:49;;;;;;;6.60;1.60;;;;;;;;;;5052526;28;20815;-45
2022/10/06 01:19:20;;;;;;;7.00;1.80;;;;;;;;;;5052167;28;20422;-47
2022/10/06 01:21:48;;;;;;;3.10;1.40;;;;;;;;;;5052494;28;20394;-44
2022/10/06 01:24:16;;;;;;;3.70;2.03;;;;;;;;;;5052137;28;20400;-46
2022/10/06 01:26:44;;;;;;;4.37;1.60;;;;;;;;;;5051488;28;20472;-46
2022/10/06 01:29:11;;;;;;;4.10;1.60;;;;;;;;;;5049799;28;20451;-44
2022/10/06 01:31:37;;;;;;;4.50;1.73;;;;;;;;;;5050028;28;20786;-45
2022/10/06 01:34:03;;;;;;;4.40;1.67;;;;;;;;;;5051001;28;20439;-44
2022/10/06 01:36:29;;;;;;;6.37;1.80;;;;;;;;;;5050908;28;20481;-43
2022/10/06 01:38:55;;;;;;;4.87;1.57;;;;;;;;;;5050334;28;20449;-44
2022/10/06 01:41:21;;;;;;;6.83;1.87;;;;;;;;;;5050118;28;20415;-48
2022/10/06 01:43:47;;;;;;;2.03;1.40;;;;;;;;;;5052022;28;20935;-48
2022/10/06 01:46:14;;;;;;;2.77;1.50;;;;;;;;;;5052603;28;20870;-46
2022/10/06 01:48:40;;;;;;;3.60;2.37;;;;;;;;;;5050567;28;20422;-46
2022/10/06 01:51:08;;;;;;;6.00;1.83;;;;;;;;;;5052242;28;20791;-47
2022/10/06 01:53:34;;;;;;;3.87;1.83;;;;;;;;;;5051623;28;20403;-47
2022/10/06 01:56:00;;;;;;;15.13;2.87;;;;;;;;;;5051979;28;20469;-46
2022/10/06 01:58:26;;;;;;;4.17;2.10;;;;;;;;;;5051195;28;20436;-46
2022/10/06 02:00:53;;;;;;;3.13;1.70;;;;;;;;;;5051987;28;20894;-47
2022/10/06 02:03:18;;;;;;;5.10;1.80;;;;;;;;;;5051606;28;20442;-46
2022/10/06 02:05:44;;;;;;;6.77;2.67;;;;;;;;;;5051980;28;20452;-47
2022/10/06 02:08:10;;;;;;;6.73;1.80;;;;;;;;;;5050971;28;20507;-46
2022/10/06 02:10:36;;;;;;;4.40;1.53;;;;;;;;;;5051776;28;20410;-47
2022/10/06 02:13:03;;;;;;;6.03;1.93;;;;;;;;;;5051785;28;20437;-47
2022/10/06 02:15:32;;;;;;;7.87;1.77;;;;;;;;;;5051697;28;20549;-46
2022/10/06 02:17:58;;;;;;;9.97;2.70;;;;;;;;;;5050980;28;20906;-46
2022/10/06 02:20:24;;;;;;;3.80;1.70;;;;;;;;;;5051732;28;20413;-47
2022/10/06 02:22:50;;;;;;;4.10;1.83;;;;;;;;;;5051368;28;20405;-47
2022/10/06 02:25:16;;;;;;;5.90;1.87;;;;;;;;;;5051915;28;20771;-48
2022/10/06 02:27:43;;;;;;;5.20;1.73;;;;;;;;;;5051332;28;20500;-46
2022/10/06 02:30:09;;;;;;;7.40;2.07;;;;;;;;;;5051249;28;20862;-47
2022/10/06 02:32:36;;;;;;;5.40;1.73;;;;;;;;;;5051495;28;20448;-44
2022/10/06 02:35:03;;;;;;;6.30;2.33;;;;;;;;;;5051290;28;20400;-45
2022/10/06 02:37:29;;;;;;;4.53;1.97;;;;;;;;;;5051353;28;20426;-46
2022/10/06 02:39:55;;;;;;;5.60;2.13;;;;;;;;;;5051084;28;20399;-47
2022/10/06 02:42:21;;;;;;;5.47;2.37;;;;;;;;;;5051300;28;20430;-47
2022/10/06 02:44:49;;;;;;;8.53;1.90;;;;;;;;;;5051458;28;20418;-44
2022/10/06 02:47:15;;;;;;;4.43;2.10;;;;;;;;;;5051197;28;20407;-46
2022/10/06 02:49:41;;;;;;;3.10;2.43;;;;;;;;;;5050888;28;20416;-44
2022/10/06 02:52:07;;;;;;;4.67;1.63;;;;;;;;;;5051477;28;20433;-46
2022/10/06 02:54:35;;;;;;;6.67;2.17;;;;;;;;;;5051182;28;20403;-46
2022/10/06 02:57:01;;;;;;;8.93;2.53;;;;;;;;;;5051007;28;20776;-47
2022/10/06 02:59:26;;;;;;;12.13;1.97;;;;;;;;;;5052742;28;20411;-46
2022/10/06 03:01:53;;;;;;;5.57;2.27;;;;;;;;;;5055208;28;20411;-47
2022/10/06 03:04:20;;;;;;;5.33;2.17;;;;;;;;;;5054927;28;20933;-45
2022/10/06 03:06:48;;;;;;;4.83;1.93;;;;;;;;;;5055408;28;20825;-46
2022/10/06 03:09:14;;;;;;;16.53;2.57;;;;;;;;;;5054487;28;20452;-47
2022/10/06 03:11:41;;;;;;;3.97;1.50;;;;;;;;;;5055114;28;20899;-47
2022/10/06 03:14:07;;;;;;;9.70;2.00;;;;;;;;;;5054938;28;20847;-48
2022/10/06 03:16:36;;;;;;;12.57;2.30;;;;;;;;;;5055465;28;20457;-46
2022/10/06 03:19:02;;;;;;;9.70;2.47;;;;;;;;;;5053151;28;20437;-47
2022/10/06 03:21:29;;;;;;;6.50;2.50;;;;;;;;;;5054397;28;20413;-47
2022/10/06 03:23:56;;;;;;;6.70;2.20;;;;;;;;;;5054882;28;20404;-46
2022/10/06 03:26:26;;;;;;;8.57;2.37;;;;;;;;;;5054743;28;20908;-46
2022/10/06 03:28:52;;;;;;;9.13;2.50;;;;;;;;;;5053999;28;20948;-45
2022/10/06 03:31:18;;;;;;;8.57;2.10;;;;;;;;;;5054523;28;20406;-45
2022/10/06 03:33:44;;;;;;;6.20;2.37;;;;;;;;;;5054952;28;20402;-45
2022/10/06 03:36:12;;;;;;;6.50;2.10;;;;;;;;;;5054555;28;20460;-47
2022/10/06 03:38:38;;;;;;;12.23;2.70;;;;;;;;;;5053932;28;20426;-46
2022/10/06 03:41:07;;;;;;;5.53;2.20;;;;;;;;;;5054361;28;20410;-47
2022/10/06 03:43:33;;;;;;;5.67;1.70;;;;;;;;;;5054525;28;20482;-46
2022/10/06 03:46:00;;;;;;;10.90;2.27;;;;;;;;;;5054403;28;20414;-46
2022/10/06 03:48:29;;;;;;;9.77;1.87;;;;;;;;;;5053824;28;20426;-46
2022/10/06 03:50:56;;;;;;;6.97;2.00;;;;;;;;;;5054232;28;20416;-44
2022/10/06 03:53:26;;;;;;;7.57;2.00;;;;;;;;;;5054374;28;20485;-46
2022/10/06 03:56:06;;;;;;;4.30;1.77;;;;;;;;;;5054173;28;20836;-46
2022/10/06 03:58:33;;;;;;;15.50;2.17;;;;;;;;;;5053439;28;20807;-44
2022/10/06 04:01:06;;;;;;;3.10;1.50;;;;;;;;;;5054095;28;20443;-46
2022/10/06 04:03:33;;;;;;;5.50;2.07;;;;;;;;;;5054126;28;20466;-44
2022/10/06 04:06:01;;;;;;;4.40;2.03;;;;;;;;;;5054151;28;20410;-46
2022/10/06 04:08:28;;;;;;;7.50;2.10;;;;;;;;;;5053355;28;20431;-46
2022/10/06 04:10:55;;;;;;;4.70;2.07;;;;;;;;;;5052666;28;20465;-44
2022/10/06 04:13:21;;;;;;;4.03;2.27;;;;;;;;;;5054047;28;20409;-44
2022/10/06 04:15:48;;;;;;;5.23;1.97;;;;;;;;;;5054035;28;20492;-47
2022/10/06 04:18:14;;;;;;;11.23;2.50;;;;;;;;;;5053368;28;20423;-45
2022/10/06 04:20:41;;;;;;;4.03;2.47;;;;;;;;;;5053922;28;20410;-45
2022/10/06 04:23:07;;;;;;;8.67;2.30;;;;;;;;;;5053750;28;20838;-47
2022/10/06 04:25:33;;;;;;;5.27;2.23;;;;;;;;;;5054091;28;20413;-47
2022/10/06 04:27:59;;;;;;;16.03;2.30;;;;;;;;;;5053387;28;20789;-48
2022/10/06 04:30:25;;;;;;;7.37;2.60;;;;;;;;;;5053273;28;20412;-47
2022/10/06 04:32:52;;;;;;;4.23;2.17;;;;;;;;;;5053418;28;20407;-47
2022/10/06 04:35:18;;;;;;;7.40;2.40;;;;;;;;;;5054011;28;20462;-43
2022/10/06 04:37:45;;;;;;;5.87;1.93;;;;;;;;;;5053193;28;20418;-43
2022/10/06 04:40:11;;;;;;;11.53;2.60;;;;;;;;;;5052920;28;20484;-43
2022/10/06 04:42:37;;;;;;;5.53;2.20;;;;;;;;;;5053211;28;20411;-43
2022/10/06 04:45:04;;;;;;;7.60;1.93;;;;;;;;;;5053392;28;20451;-43
2022/10/06 04:47:30;;;;;;;4.30;2.20;;;;;;;;;;5053064;28;20461;-43
2022/10/06 04:49:56;;;;;;;6.73;2.17;;;;;;;;;;5052764;28;20443;-44
2022/10/06 04:52:22;;;;;;;9.70;2.20;;;;;;;;;;5053570;28;20403;-43
2022/10/06 04:54:48;;;;;;;18.80;3.10;;;;;;;;;;5053019;28;20423;-43
2022/10/06 04:57:14;;;;;;;10.47;1.90;;;;;;;;;;5052908;28;20945;-43
2022/10/06 05:02:24;;;;;;;7.93;1.87;;;;;;;;;;5052972;28;20467;-43
2022/10/06 05:04:50;;;;;;;7.10;2.10;;;;;;;;;;5053019;28;20430;-43
2022/10/06 05:07:16;;;;;;;6.23;2.10;;;;;;;;;;5052570;28;20430;-43
2022/10/06 05:09:42;;;;;;;5.40;2.00;;;;;;;;;;5052394;28;20405;-43
2022/10/06 05:12:09;;;;;;;8.73;2.33;;;;;;;;;;5052696;28;20397;-43
2022/10/06 05:14:35;;;;;;;11.77;2.90;;;;;;;;;;5052848;28;20408;-43
2022/10/06 05:17:01;;;;;;;4.17;2.07;;;;;;;;;;5052622;28;20941;-43
2022/10/06 05:19:27;;;;;;;17.50;2.27;;;;;;;;;;5052105;28;20417;-43
2022/10/06 05:21:53;;;;;;;8.63;2.43;;;;;;;;;;5052178;28;20448;-43
2022/10/06 05:24:19;;;;;;;4.87;2.27;;;;;;;;;;5052837;28;20399;-43
2022/10/06 05:26:45;;;;;;;12.37;2.80;;;;;;;;;;5052554;28;20467;-43
2022/10/06 05:29:11;;;;;;;5.60;2.00;;;;;;;;;;5051835;28;20413;-42
2022/10/06 05:31:39;;;;;;;7.33;2.80;;;;;;;;;;5052588;28;20421;-43
2022/10/06 05:34:05;;;;;;;10.30;2.80;;;;;;;;;;5052354;28;20403;-43
2022/10/06 05:36:32;;;;;;;9.70;2.40;;;;;;;;;;5052171;28;20866;-43
2022/10/06 05:38:59;;;;;;;14.20;3.13;;;;;;;;;;5051695;28;20426;-43
2022/10/06 05:41:36;;;;;;;9.40;2.60;;;;;;;;;;5052348;28;20984;-43
2022/10/06 05:44:02;;;;;;;9.43;2.10;;;;;;;;;;5052116;28;20405;-42
2022/10/06 05:46:29;;;;;;;9.70;2.50;;;;;;;;;;5052221;28;20448;-43
2022/10/06 05:48:59;;;;;;;6.07;2.30;;;;;;;;;;5051354;28;20426;-43
2022/10/06 05:51:27;;;;;;;10.77;2.70;;;;;;;;;;5052160;28;20415;-43
2022/10/06 05:53:53;;;;;;;10.33;4.00;;;;;;;;;;5051879;28;20459;-43
2022/10/06 05:56:24;;;;;;;9.83;2.57;;;;;;;;;;5051960;28;20457;-43
2022/10/06 05:58:50;;;;;;;7.90;2.47;;;;;;;;;;5051377;28;20425;-43
2022/10/06 06:01:16;;;;;;;11.87;2.87;;;;;;;;;;5051961;28;20414;-43
2022/10/06 06:03:46;;;;;;;5.00;2.87;;;;;;;;;;5051611;28;20479;-43
2022/10/06 06:06:22;;;;;;;5.00;3.33;;;;;;;;;;5051912;28;20929;-43
2022/10/06 06:08:51;;;;;;;7.80;1.93;;;;;;;;;;5051154;28;21014;-43
2022/10/06 06:11:17;;;;;;;13.80;2.60;;;;;;;;;;5051886;28;20497;-43
2022/10/06 06:13:43;;;;;;;12.00;2.30;;;;;;;;;;5051527;28;20947;-43
2022/10/06 06:16:12;;;;;;;6.20;2.30;;;;;;;;;;5051635;28;20465;-43
2022/10/06 06:18:38;;;;;;;15.20;3.00;;;;;;;;;;5051065;28;20952;-43
2022/10/06 06:21:05;;;;;;;5.90;2.00;;;;;;;;;;5051789;28;20411;-43
2022/10/06 06:23:33;;;;;;;5.63;1.90;;;;;;;;;;5051543;28;20408;-43
2022/10/06 06:26:00;;;;;;;11.30;3.40;;;;;;;;;;5051702;28;20416;-44
2022/10/06 06:28:30;;;;;;;8.80;2.27;;;;;;;;;;5050703;28;20425;-43
2022/10/06 06:31:06;;;;;;;9.07;2.00;;;;;;;;;;5051584;28;20831;-44
2022/10/06 06:33:32;;;;;;;12.43;2.77;;;;;;;;;;5052679;28;20410;-43
2022/10/06 06:36:00;;;;;;;5.50;2.23;;;;;;;;;;5057972;28;20455;-43
2022/10/06 06:38:25;;;;;;;9.33;3.07;;;;;;;;;;5057408;28;20506;-43
2022/10/06 06:40:51;;;;;;;4.93;2.27;;;;;;;;;;5058132;28;20500;-43
2022/10/06 06:43:19;;;;;;;12.37;2.77;;;;;;;;;;5057703;28;20410;-43
2022/10/06 06:45:45;;;;;;;9.20;2.37;;;;;;;;;;5056889;28;20795;-43
2022/10/06 06:48:15;;;;;;;10.50;2.03;;;;;;;;;;5057891;28;20423;-43
2022/10/06 06:50:42;;;;;;;10.53;2.70;;;;;;;;;;5058182;28;20407;-43
2022/10/06 06:53:08;;;;;;;13.23;2.77;;;;;;;;;;5058027;28;20467;-43
2022/10/06 06:55:33;;;;;;;7.90;2.13;;;;;;;;;;5057580;28;20454;-43
2022/10/06 06:57:59;;;;;;;4.97;2.30;;;;;;;;;;5057552;28;20415;-43
2022/10/06 07:00:25;;;;;;;13.77;2.67;;;;;;;;;;5057612;28;20486;-43
2022/10/06 07:02:55;;;;;;;10.83;3.27;;;;;;;;;;5057986;28;20417;-43
2022/10/06 07:05:21;;;;;;;15.23;2.77;;;;;;;;;;5057644;28;20404;-43
2022/10/06 07:07:47;;;;;;;10.63;2.20;;;;;;;;;;5057614;28;20450;-43
2022/10/06 07:10:13;;;;;;;6.70;2.17;;;;;;;;;;5057275;28;20413;-43
2022/10/06 07:12:39;;;;;;;11.90;3.07;;;;;;;;;;5057818;28;20413;-43
2022/10/06 07:26:06;;;;;;;10.83;2.50;;;;;;;;;;5043927;28;20469;-43
2022/10/06 07:28:31;;;;;;;12.67;2.70;;;;;;;;;;5056995;28;20421;-43
2022/10/06 07:30:59;;;;;;;5.20;2.30;;;;;;;;;;5058451;28;20635;-42
2022/10/06 07:33:28;;;;;;;10.70;2.73;;;;;;;;;;5057776;28;20393;-43
2022/10/06 07:35:54;;;;;;;19.23;3.00;;;;;;;;;;5057421;28;20483;-43
2022/10/06 07:38:24;;;;;;;4.43;2.50;;;;;;;;;;5057016;28;20417;-43
2022/10/06 07:40:54;;;;;;;11.30;2.33;;;;;;;;;;5057753;28;20764;-42
2022/10/06 07:43:20;;;;;;;16.30;3.27;;;;;;;;;;5057695;28;20399;-43
2022/10/06 07:45:48;;;;;;;9.03;2.03;;;;;;;;;;5055598;28;20411;-42
2022/10/06 07:48:16;;;;;;;15.93;2.50;;;;;;;;;;5054243;28;20428;-43
2022/10/06 07:50:43;;;;;;;11.57;3.03;;;;;;;;;;5054496;28;20425;-43
2022/10/06 07:53:09;;;;;;;8.27;2.53;;;;;;;;;;5051064;28;20914;-43
2022/10/06 07:55:38;;;;;;;8.80;2.63;;;;;;;;;;5036035;28;20957;-43
2022/10/06 07:58:07;;;;;;;17.37;2.57;;;;;;;;;;5053562;28;20566;-43
2022/10/06 08:00:33;;;;;;;6.07;2.50;;;;;;;;;;5053699;28;20405;-43
2022/10/06 08:02:59;;;;;;;11.43;2.90;;;;;;;;;;5053925;28;20427;-42
2022/10/06 08:05:25;;;;;;;13.60;2.60;;;;;;;;;;5053853;28;20419;-43
2022/10/06 08:07:52;;;;;;;11.57;2.40;;;;;;;;;;5053618;28;20473;-42
2022/10/06 08:10:19;;;;;;;11.70;2.60;;;;;;;;;;5053918;28;20405;-43
2022/10/06 08:12:45;;;;;;;11.37;3.10;;;;;;;;;;5053628;28;20788;-43
2022/10/06 08:15:12;;;;;;;7.10;2.10;;;;;;;;;;5053455;28;20751;-42
2022/10/06 08:17:38;;;;;;;7.73;2.40;;;;;;;;;;5049183;28;20512;-42
2022/10/06 08:20:06;;;;;;;11.57;2.57;;;;;;;;;;5034192;28;20409;-43
2022/10/06 08:22:32;;;;;;;8.70;3.70;;;;;;;;;;5048763;28;20419;-42
2022/10/06 08:24:58;;;;;;;15.87;2.93;;;;;;;;;;5047831;28;20448;-43
2022/10/06 08:27:25;;;;;;;11.30;3.27;;;;;;;;;;5046884;28;20478;-43
2022/10/06 08:29:51;;;;;;;12.87;3.20;;;;;;;;;;5053044;28;20403;-42
2022/10/06 08:32:18;;;;;;;15.03;3.03;;;;;;;;;;5053427;28;20417;-43
2022/10/06 08:34:44;;;;;;;9.67;2.90;;;;;;;;;;5053342;28;20436;-42
2022/10/06 08:37:10;;;;;;;21.77;3.20;;;;;;;;;;5046507;28;20492;-42
2022/10/06 08:39:36;;;;;;;14.40;2.80;;;;;;;;;;5032682;28;20440;-43
2022/10/06 08:42:02;;;;;;;14.63;3.03;;;;;;;;;;5043112;28;20408;-43
2022/10/06 08:44:34;;;;;;;14.97;2.70;;;;;;;;;;5053190;28;20403;-42
2022/10/06 08:47:02;;;;;;;13.20;3.50;;;;;;;;;;5052497;28;20413;-43
2022/10/06 08:49:38;;;;;;;16.43;3.50;;;;;;;;;;5046582;28;20447;-43
2022/10/06 08:52:10;;;;;;;11.80;2.80;;;;;;;;;;5050426;28;20436;-43
2022/10/06 08:54:45;;;;;;;15.57;2.60;;;;;;;;;;5041133;28;20406;-42
2022/10/06 08:57:20;;;;;;;6.67;2.33;;;;;;;;;;5042355;28;20473;-43
2022/10/06 08:59:47;;;;;;;10.23;2.93;;;;;;;;;;5052519;28;20412;-43
2022/10/06 09:02:40;;;;;;;13.30;2.70;;;;;;;;;;5052865;28;20494;-43
2022/10/06 09:05:08;;;;;;;10.50;3.00;;;;;;;;;;5051647;28;20471;-43
2022/10/06 09:07:43;;;;;;;11.73;5.27;;;;;;;;;;5052344;28;20903;-43
2022/10/06 09:10:15;;;;;;;15.27;2.40;;;;;;;;;;5052306;28;20462;-43
2022/10/06 09:12:41;;;;;;;13.87;2.37;;;;;;;;;;5051378;28;20426;-43
2022/10/06 09:15:19;;;;;;;15.00;2.80;;;;;;;;;;5044216;28;20421;-43
2022/10/06 09:17:49;;;;;;;16.37;3.10;;;;;;;;;;5051970;28;20441;-43
2022/10/06 09:20:35;;;;;;;9.07;2.37;;;;;;;;;;5052109;28;20523;-43
2022/10/06 09:23:04;;;;;;;8.10;2.43;;;;;;;;;;5052885;28;20493;-43
2022/10/06 09:25:30;;;;;;;14.03;2.67;;;;;;;;;;5052184;28;20397;-43
2022/10/06 09:27:57;;;;;;;10.30;2.97;;;;;;;;;;5045664;28;20448;-43
2022/10/06 09:30:24;;;;;;;12.83;2.00;;;;;;;;;;5040945;28;20408;-44
2022/10/06 09:33:00;;;;;;;7.73;2.60;;;;;;;;;;5045965;28;20413;-43
2022/10/06 09:35:30;;;;;;;7.80;2.60;;;;;;;;;;5052390;28;20954;-43
2022/10/06 09:38:03;;;;;;;9.03;2.60;;;;;;;;;;5051692;28;20874;-44
2022/10/06 09:40:35;;;;;;;9.17;2.27;;;;;;;;;;5051747;28;21002;-43
2022/10/06 09:43:02;;;;;;;10.97;2.70;;;;;;;;;;5052339;28;20412;-44
2022/10/06 09:45:30;;;;;;;6.60;1.90;;;;;;;;;;5052330;28;20674;-43
2022/10/06 09:48:11;;;;;;;7.13;2.03;;;;;;;;;;5051734;28;20437;-43
2022/10/06 09:50:37;;;;;;;8.53;2.60;;;;;;;;;;5051676;28;20891;-44
2022/10/06 09:53:10;;;;;;;9.40;2.77;;;;;;;;;;5052775;28;20478;-47
2022/10/06 09:55:36;;;;;;;7.70;2.17;;;;;;;;;;5052049;28;20486;-46
2022/10/06 09:58:02;;;;;;;8.00;2.40;;;;;;;;;;5051291;28;20485;-47
2022/10/06 10:00:33;;;;;;;7.57;2.00;;;;;;;;;;5051230;28;20926;-46
2022/10/06 10:03:01;;;;;;;9.80;2.40;;;;;;;;;;5051644;28;20833;-44
2022/10/06 10:05:29;;;;;;;7.73;2.67;;;;;;;;;;5048570;28;20823;-44
2022/10/06 10:08:02;;;;;;;10.70;2.67;;;;;;;;;;5049387;28;20456;-44
2022/10/06 10:10:33;;;;;;;7.40;2.50;;;;;;;;;;5051126;28;20593;-44
2022/10/06 10:12:59;;;;;;;6.70;1.80;;;;;;;;;;5051975;28;20405;-44
2022/10/06 10:15:29;;;;;;;7.23;1.90;;;;;;;;;;5051703;28;20410;-44
2022/10/06 10:17:55;;;;;;;6.90;2.03;;;;;;;;;;5051350;28;20965;-45
2022/10/06 10:20:24;;;;;;;12.40;2.27;;;;;;;;;;5051393;28;20406;-44
2022/10/06 10:22:51;;;;;;;7.77;2.20;;;;;;;;;;5051666;28;20412;-44
2022/10/06 10:25:26;;;;;;;3.43;1.87;;;;;;;;;;5051881;28;20428;-44
2022/10/06 10:27:52;;;;;;;13.83;2.10;;;;;;;;;;5051254;28;20478;-44
2022/10/06 10:30:18;;;;;;;7.23;2.13;;;;;;;;;;5051343;28;20846;-44
2022/10/06 10:32:55;;;;;;;10.23;2.20;;;;;;;;;;5050694;28;20406;-44
2022/10/06 10:35:21;;;;;;;8.73;2.03;;;;;;;;;;5036755;28;20410;-44
2022/10/06 10:37:50;;;;;;;7.83;1.93;;;;;;;;;;5040687;28;20436;-44
2022/10/06 10:40:19;;;;;;;6.00;1.80;;;;;;;;;;5051186;28;20898;-44
2022/10/06 10:42:49;;;;;;;9.70;2.13;;;;;;;;;;5051624;28;20409;-44
2022/10/06 10:45:19;;;;;;;4.97;1.83;;;;;;;;;;5051347;28;20402;-44
2022/10/06 10:47:46;;;;;;;4.63;1.93;;;;;;;;;;5051374;28;20550;-44
2022/10/06 10:50:21;;;;;;;9.03;1.93;;;;;;;;;;5049738;28;20405;-43
2022/10/06 10:52:49;;;;;;;5.47;1.80;;;;;;;;;;5051417;28;20772;-43
2022/10/06 10:55:16;;;;;;;4.90;2.33;;;;;;;;;;5051096;28;20412;-43
2022/10/06 10:57:43;;;;;;;4.30;1.57;;;;;;;;;;5050941;28;20417;-44
2022/10/06 11:00:19;;;;;;;4.37;1.57;;;;;;;;;;5050830;28;20401;-44
2022/10/06 11:02:46;;;;;;;5.00;1.80;;;;;;;;;;5050907;28;21034;-43
2022/10/06 11:05:15;;;;;;;3.90;1.80;;;;;;;;;;5051358;28;20412;-43
2022/10/06 11:07:49;;;;;;;6.73;1.60;;;;;;;;;;5050912;28;20981;-44
2022/10/06 11:10:20;;;;;;;4.80;1.60;;;;;;;;;;5051007;28;20394;-44
2022/10/06 11:13:06;;;;;;;6.90;1.80;;;;;;;;;;5051088;28;20412;-44
2022/10/06 11:15:51;;;;;;;6.63;1.87;;;;;;;;;;5051150;28;20521;-43
2022/10/06 11:18:23;;;;;;;4.00;1.30;;;;;;;;;;5050779;28;20782;-44
2022/10/06 11:20:49;;;;;;;4.30;1.50;;;;;;;;;;5052182;28;20393;-44
2022/10/06 11:23:39;;;;;;;5.13;1.80;;;;;;;;;;5055021;28;20412;-43
2022/10/06 11:26:23;;;;;;;4.83;1.40;;;;;;;;;;5055035;28;20178;-44
2022/10/06 11:29:03;;;;;;;8.97;1.97;;;;;;;;;;5054107;28;20429;-43
2022/10/06 11:31:29;;;;;;;10.90;2.10;;;;;;;;;;5054811;28;20405;-44
2022/10/06 11:33:57;;;;;;;5.00;1.70;;;;;;;;;;5054631;28;20409;-43
2022/10/06 11:36:38;;;;;;;4.30;1.60;;;;;;;;;;5054422;28;20230;-43
2022/10/06 11:39:14;;;;;;;5.00;2.10;;;;;;;;;;5053818;28;20425;-43
2022/10/06 11:41:44;;;;;;;3.27;1.50;;;;;;;;;;5054724;28;20397;-44
2022/10/06 11:44:21;;;;;;;3.80;1.37;;;;;;;;;;5054489;28;20822;-44
2022/10/06 11:46:56;;;;;;;4.77;1.50;;;;;;;;;;5054494;28;20954;-43
2022/10/06 11:49:27;;;;;;;4.83;1.87;;;;;;;;;;5053460;28;20425;-43
2022/10/06 11:51:54;;;;;;;7.00;1.30;;;;;;;;;;5054402;28;20403;-43
2022/10/06 11:54:38;;;;;;;6.17;2.20;;;;;;;;;;5054427;28;20415;-44
2022/10/06 11:57:40;;;;;;;5.20;1.60;;;;;;;;;;5053952;28;20459;-43
2022/10/06 12:00:08;;;;;;;4.40;1.60;;;;;;;;;;5031319;28;20417;-43
2022/10/06 12:02:34;;;;;;;7.43;1.37;;;;;;;;;;5050027;28;20433;-44
2022/10/06 12:05:09;;;;;;;6.73;1.80;;;;;;;;;;5053877;28;20405;-43
2022/10/06 12:07:56;;;;;;;3.63;1.47;;;;;;;;;;5053865;28;20259;-44
2022/10/06 12:10:28;;;;;;;5.20;1.90;;;;;;;;;;5053504;28;20405;-44
2022/10/06 12:12:57;;;;;;;4.43;1.87;;;;;;;;;;5053969;28;20910;-43
2022/10/06 12:15:33;;;;;;;5.03;1.50;;;;;;;;;;5053643;28;20482;-43
2022/10/06 12:18:16;;;;;;;4.37;1.70;;;;;;;;;;5050839;28;20425;-43
2022/10/06 12:21:05;;;;;;;5.10;1.50;;;;;;;;;;5033442;28;20447;-44
2022/10/06 12:23:34;;;;;;;3.73;1.47;;;;;;;;;;5043920;28;20402;-43
2022/10/06 12:26:04;;;;;;;3.43;1.67;;;;;;;;;;5053616;28;20419;-43
2022/10/06 12:28:40;;;;;;;5.90;1.60;;;;;;;;;;5053527;28;20428;-43
2022/10/06 12:31:20;;;;;;;5.93;1.87;;;;;;;;;;5051815;28;20478;-43
2022/10/06 12:33:47;;;;;;;3.50;1.43;;;;;;;;;;5052031;28;20416;-44
2022/10/06 12:36:17;;;;;;;5.23;1.40;;;;;;;;;;5053348;28;20467;-44
2022/10/06 12:39:05;;;;;;;6.10;1.30;;;;;;;;;;5052860;28;20429;-43
2022/10/06 12:41:50;;;;;;;5.67;1.60;;;;;;;;;;5053551;28;20823;-43
2022/10/06 12:44:23;;;;;;;4.23;1.40;;;;;;;;;;5053391;28;20928;-43
2022/10/06 12:46:50;;;;;;;3.30;1.10;;;;;;;;;;5053226;28;20902;-43
2022/10/06 12:49:25;;;;;;;3.23;1.30;;;;;;;;;;5052469;28;20417;-44
2022/10/06 12:51:52;;;;;;;3.53;1.40;;;;;;;;;;5053546;28;20447;-44
2022/10/06 12:54:30;;;;;;;4.00;1.57;;;;;;;;;;5053295;28;20440;-43
2022/10/06 12:56:58;;;;;;;7.07;1.57;;;;;;;;;;5053154;28;20449;-43
2022/10/06 12:59:34;;;;;;;7.03;1.60;;;;;;;;;;5052239;28;20459;-44
2022/10/06 13:02:12;;;;;;;5.73;1.33;;;;;;;;;;5053009;28;20401;-43
2022/10/06 13:04:38;;;;;;;3.00;1.10;;;;;;;;;;5053260;28;20436;-44
2022/10/06 13:07:10;;;;;;;4.73;1.80;;;;;;;;;;5053061;28;20417;-43
2022/10/06 13:09:36;;;;;;;2.90;1.40;;;;;;;;;;5052558;28;20492;-43
2022/10/06 13:12:22;;;;;;;6.93;2.07;;;;;;;;;;5052953;28;20409;-43
2022/10/06 13:15:07;;;;;;;4.00;1.30;;;;;;;;;;5052948;28;20973;-43
2022/10/06 13:17:34;;;;;;;3.93;1.37;;;;;;;;;;5052888;28;20529;-43
2022/10/06 13:20:00;;;;;;;6.20;1.77;;;;;;;;;;5051768;28;20819;-43
2022/10/06 13:22:26;;;;;;;2.53;1.27;;;;;;;;;;5052734;28;20394;-43
2022/10/06 13:24:59;;;;;;;3.00;1.70;;;;;;;;;;5052800;28;20406;-43
2022/10/06 13:27:25;;;;;;;3.93;1.27;;;;;;;;;;5052686;28;20417;-43
2022/10/06 13:29:50;;;;;;;4.43;1.43;;;;;;;;;;5051695;28;20519;-43
2022/10/06 13:32:17;;;;;;;7.10;1.67;;;;;;;;;;5052600;28;20404;-44
2022/10/06 13:34:44;;;;;;;3.93;1.50;;;;;;;;;;5052456;28;20413;-44
2022/10/06 13:37:13;;;;;;;5.10;1.90;;;;;;;;;;5052345;28;21011;-43
2022/10/06 13:39:39;;;;;;;6.40;1.53;;;;;;;;;;5051864;28;20410;-43
2022/10/06 13:42:09;;;;;;;8.43;1.90;;;;;;;;;;5052094;28;20913;-44
2022/10/06 13:44:37;;;;;;;6.73;1.53;;;;;;;;;;5050669;28;20401;-44
2022/10/06 13:47:05;;;;;;;7.10;1.80;;;;;;;;;;5051989;28;20779;-44
2022/10/06 13:49:54;;;;;;;3.50;1.30;;;;;;;;;;5051608;28;20805;-43
2022/10/06 13:52:33;;;;;;;6.23;1.87;;;;;;;;;;5048938;28;20418;-43
2022/10/06 13:54:59;;;;;;;5.20;1.33;;;;;;;;;;5052141;28;20417;-43
2022/10/06 13:57:32;;;;;;;6.97;1.93;;;;;;;;;;5051764;28;20465;-44
2022/10/06 14:00:13;;;;;;;4.37;1.40;;;;;;;;;;5051530;28;20413;-44
2022/10/06 14:02:39;;;;;;;6.60;1.93;;;;;;;;;;5052047;28;20471;-43
2022/10/06 14:05:21;;;;;;;6.23;1.90;;;;;;;;;;5052048;28;20415;-44
2022/10/06 14:07:48;;;;;;;5.90;1.40;;;;;;;;;;5051521;28;20413;-44
2022/10/06 14:10:15;;;;;;;5.40;1.63;;;;;;;;;;5051345;28;20471;-43
2022/10/06 14:12:45;;;;;;;5.60;2.23;;;;;;;;;;5051642;28;20425;-45
2022/10/06 14:15:25;;;;;;;8.20;1.67;;;;;;;;;;5051941;28;20455;-44
2022/10/06 14:17:52;;;;;;;4.37;1.70;;;;;;;;;;5051519;28;20461;-43
2022/10/06 14:20:38;;;;;;;6.33;1.80;;;;;;;;;;5051266;28;20408;-43
2022/10/06 14:23:23;;;;;;;4.70;1.50;;;;;;;;;;5051706;28;20484;-43
2022/10/06 14:25:49;;;;;;;5.77;1.50;;;;;;;;;;5052042;28;20412;-44
2022/10/06 14:28:15;;;;;;;7.23;1.80;;;;;;;;;;5051378;28;20511;-44
2022/10/06 14:30:40;;;;;;;4.27;1.43;;;;;;;;;;5051121;28;20401;-45
2022/10/06 14:33:07;;;;;;;4.13;1.30;;;;;;;;;;5051452;28;20408;-44
2022/10/06 14:35:33;;;;;;;4.33;1.57;;;;;;;;;;5039910;28;20421;-44
2022/10/06 14:38:00;;;;;;;2.00;1.40;;;;;;;;;;5050223;28;20421;-44
2022/10/06 14:40:26;;;;;;;10.17;2.33;;;;;;;;;;5051251;28;20416;-43
2022/10/06 14:42:51;;;;;;;5.20;1.63;;;;;;;;;;5051223;28;20405;-43
2022/10/06 14:45:18;;;;;;;5.03;1.60;;;;;;;;;;5051358;28;20492;-43
2022/10/06 14:47:45;;;;;;;6.43;1.40;;;;;;;;;;5051624;28;20417;-43
2022/10/06 14:50:11;;;;;;;2.40;1.37;;;;;;;;;;5051211;28;20405;-43
2022/10/06 14:52:37;;;;;;;8.13;1.50;;;;;;;;;;5051365;28;20919;-43
2022/10/06 14:55:06;;;;;;;4.03;1.93;;;;;;;;;;5052643;28;20437;-43
2022/10/06 14:57:32;;;;;;;6.07;1.77;;;;;;;;;;5055364;28;20460;-43
2022/10/06 14:59:58;;;;;;;4.50;1.77;;;;;;;;;;5053411;28;20528;-43
2022/10/06 15:02:24;;;;;;;3.00;1.20;;;;;;;;;;5054716;28;20414;-43
2022/10/06 15:04:50;;;;;;;6.37;1.80;;;;;;;;;;5055364;28;20535;-43